createdAt,value
2023-04-13T00:03:58.117Z,2.58
2023-04-13T00:14:02.557Z,3.78
2023-04-13T00:19:04.370Z,3.28
2023-04-13T00:24:06.643Z,2.63
2023-04-13T00:29:08.754Z,2.55
2023-04-13T00:34:11.238Z,3.78
2023-04-13T00:39:13.622Z,2.40
2023-04-13T00:44:16.087Z,2.72
2023-04-13T00:49:18.602Z,2.80
2023-04-13T00:54:20.554Z,2.72
2023-04-13T00:59:22.700Z,4.30
2023-04-13T01:04:27.157Z,2.13
2023-04-13T01:14:58.429Z,2.70
2023-04-13T01:20:06.574Z,4.05
2023-04-13T01:25:08.414Z,3.53
2023-04-13T01:30:22.102Z,3.00
2023-04-13T01:35:25.999Z,2.92
2023-04-13T01:40:31.062Z,4.65
2023-04-13T01:45:37.070Z,2.88
2023-04-13T01:50:48.408Z,3.53
2023-04-13T01:55:58.040Z,2.65
2023-04-13T02:01:00.578Z,1.83
2023-04-13T02:06:03.014Z,3.08
2023-04-13T02:11:07.808Z,3.42
2023-04-13T02:16:10.049Z,4.80
2023-04-13T02:21:12.072Z,1.60
2023-04-13T02:26:14.347Z,3.88
2023-04-13T02:31:17.471Z,3.25
2023-04-13T02:36:21.510Z,2.80
2023-04-13T02:41:30.535Z,4.35
2023-04-13T02:46:33.098Z,1.90
2023-04-13T02:51:43.501Z,4.75
2023-04-13T02:56:47.148Z,2.30
2023-04-13T03:01:49.578Z,3.35
2023-04-13T03:06:54.408Z,2.13
2023-04-13T03:11:57.015Z,3.50
2023-04-13T03:17:00.842Z,4.18
2023-04-13T03:22:11.230Z,2.95
2023-04-13T03:27:21.482Z,1.85
2023-04-13T03:32:25.410Z,6.82
2023-04-13T03:37:40.246Z,3.88
2023-04-13T03:42:50.081Z,4.90
2023-04-13T03:47:52.423Z,3.92
2023-04-13T03:52:56.952Z,2.15
2023-04-13T03:57:59.398Z,2.30
2023-04-13T04:03:04.520Z,1.60
2023-04-13T04:08:14.025Z,2.22
2023-04-13T04:13:16.709Z,3.20
2023-04-13T04:18:23.231Z,4.20
2023-04-13T04:23:27.973Z,3.05
2023-04-13T04:28:38.648Z,4.47
2023-04-13T04:33:42.837Z,1.85
2023-04-13T04:38:47.587Z,4.13
2023-04-13T04:43:49.499Z,2.70
2023-04-13T04:48:52.409Z,3.80
2023-04-13T04:53:58.626Z,1.83
2023-04-13T04:59:01.164Z,3.22
2023-04-13T05:04:12.595Z,3.10
2023-04-13T05:09:19.110Z,1.80
2023-04-13T05:14:25.232Z,3.83
2023-04-13T05:19:27.753Z,3.13
2023-04-13T05:24:37.491Z,2.20
2023-04-13T05:29:47.422Z,2.47
2023-04-13T05:34:52.614Z,2.40
2023-04-13T05:40:00.352Z,2.10
2023-04-13T05:45:09.734Z,4.00
2023-04-13T05:50:20.725Z,1.63
2023-04-13T05:55:23.575Z,2.75
2023-04-13T06:00:32.767Z,3.72
2023-04-13T06:05:40.061Z,2.38
2023-04-13T06:10:46.863Z,2.00
2023-04-13T06:15:48.643Z,2.25
2023-04-13T06:20:51.682Z,3.72
2023-04-13T06:25:55.011Z,1.83
2023-04-13T06:31:09.146Z,3.13
2023-04-13T06:36:13.184Z,4.50
2023-04-13T06:41:15.541Z,3.17
2023-04-13T06:46:21.281Z,6.45
2023-04-13T06:51:26.960Z,4.00
2023-04-13T06:56:30.000Z,3.05
2023-04-13T07:01:32.366Z,3.47
2023-04-13T07:06:34.925Z,5.28
2023-04-13T07:11:37.034Z,6.30
2023-04-13T07:16:39.921Z,4.97
2023-04-13T07:21:42.317Z,4.65
2023-04-13T07:26:44.316Z,3.97
2023-04-13T07:31:47.641Z,3.28
2023-04-13T07:36:49.695Z,8.85
2023-04-13T07:41:54.746Z,5.20
2023-04-13T07:47:08.499Z,5.90
2023-04-13T07:52:10.592Z,8.20
2023-04-13T07:57:15.049Z,4.63
2023-04-13T08:02:22.725Z,6.88
2023-04-13T08:07:27.743Z,8.73
2023-04-13T08:12:29.503Z,6.15
2023-04-13T08:17:31.654Z,8.10
2023-04-13T08:22:36.685Z,7.60
2023-04-13T08:27:40.595Z,7.38
2023-04-13T08:32:42.403Z,7.93
2023-04-13T08:37:44.821Z,6.47
2023-04-13T08:42:47.939Z,7.20
2023-04-13T08:47:50.015Z,5.93
2023-04-13T08:52:54.672Z,5.75
2023-04-13T08:58:01.127Z,4.32
2023-04-13T09:03:10.340Z,7.03
2023-04-13T09:08:19.727Z,5.18
2023-04-13T09:18:25.104Z,9.05
2023-04-13T09:23:33.501Z,6.70
2023-04-13T09:28:46.445Z,7.15
2023-04-13T09:33:50.554Z,12.40
2023-04-13T09:38:53.837Z,6.45
2023-04-13T09:43:55.795Z,9.40
2023-04-13T09:49:04.967Z,7.63
2023-04-13T09:54:07.982Z,7.32
2023-04-13T09:59:10.537Z,7.38
2023-04-13T10:04:13.097Z,6.40
2023-04-13T10:09:15.797Z,6.40
2023-04-13T10:14:28.001Z,8.65
2023-04-13T10:19:32.721Z,6.53
2023-04-13T10:24:35.020Z,7.72
2023-04-13T10:29:36.844Z,5.28
2023-04-13T10:34:39.543Z,6.18
2023-04-13T10:39:41.241Z,5.38
2023-04-13T10:44:47.582Z,3.70
2023-04-13T10:49:52.265Z,4.03
2023-04-13T10:54:54.879Z,3.78
2023-04-13T10:59:58.607Z,4.95
2023-04-13T11:05:01.273Z,3.63
2023-04-13T11:10:04.255Z,1.77
2023-04-13T11:15:07.797Z,2.15
2023-04-13T11:20:11.314Z,4.87
2023-04-13T11:25:13.387Z,4.80
2023-04-13T11:30:15.308Z,3.92
2023-04-13T11:35:18.639Z,2.90
2023-04-13T11:40:25.629Z,3.17
2023-04-13T11:45:30.686Z,2.83
2023-04-13T11:50:33.320Z,4.60
2023-04-13T12:00:44.590Z,3.63
2023-04-13T12:05:47.389Z,2.10
2023-04-13T12:11:25.170Z,2.83
2023-04-13T12:17:01.987Z,4.07
2023-04-13T12:21:57.604Z,4.75
2023-04-13T12:32:14.619Z,3.55
2023-04-13T12:37:17.001Z,3.67
2023-04-13T12:42:18.760Z,5.50
2023-04-13T12:47:20.728Z,4.00
2023-04-13T12:52:22.553Z,5.22
2023-04-13T12:57:25.921Z,2.60
2023-04-13T13:02:30.971Z,5.22
2023-04-13T13:07:32.962Z,2.88
2023-04-13T13:12:34.881Z,3.72
2023-04-13T13:17:40.059Z,4.47
2023-04-13T13:22:43.027Z,2.25
2023-04-13T13:32:49.536Z,3.78
2023-04-13T13:37:51.339Z,3.28
2023-04-13T13:42:53.986Z,3.03
2023-04-13T13:47:58.389Z,2.75
2023-04-13T13:53:11.947Z,4.40
2023-04-13T13:58:16.975Z,3.35
2023-04-13T14:03:19.146Z,3.08
2023-04-13T14:08:21.021Z,4.03
2023-04-13T14:13:23.333Z,2.85
2023-04-13T14:18:25.776Z,2.72
2023-04-13T14:23:27.705Z,3.13
2023-04-13T14:28:29.506Z,3.75
2023-04-13T14:33:31.629Z,3.40
2023-04-13T14:38:34.567Z,2.80
2023-04-13T14:43:36.306Z,5.78
2023-04-13T14:48:38.093Z,5.15
2023-04-13T14:53:39.824Z,6.47
2023-04-13T14:58:41.690Z,3.15
2023-04-13T15:03:43.614Z,2.65
2023-04-13T15:08:46.309Z,3.80
2023-04-13T15:13:48.499Z,3.70
2023-04-13T15:18:50.616Z,1.88
2023-04-13T15:23:52.285Z,2.03
2023-04-13T15:28:53.960Z,5.07
2023-04-13T15:33:55.856Z,1.73
2023-04-13T15:38:58.012Z,2.17
2023-04-13T15:44:00.383Z,3.38
2023-04-13T15:49:02.420Z,2.08
2023-04-13T15:54:04.686Z,1.25
2023-04-13T15:59:06.751Z,2.08
2023-04-13T16:04:08.764Z,1.45
2023-04-13T16:09:10.949Z,1.60
2023-04-13T16:14:12.740Z,2.42
2023-04-13T16:19:18.088Z,1.38
2023-04-13T16:24:21.013Z,4.10
2023-04-13T16:29:22.757Z,1.88
2023-04-13T16:34:26.593Z,2.22
2023-04-13T16:39:28.400Z,2.25
2023-04-13T16:44:30.161Z,1.52
2023-04-13T16:49:33.471Z,1.85
2023-04-13T16:54:35.164Z,1.50
2023-04-13T16:59:36.840Z,1.33
2023-04-13T17:04:38.610Z,1.77
2023-04-13T17:09:40.351Z,1.42
2023-04-13T17:14:42.859Z,2.42
2023-04-13T17:19:45.039Z,1.88
2023-04-13T17:24:46.884Z,2.95
2023-04-13T17:29:49.684Z,1.70
2023-04-13T17:34:51.517Z,2.00
2023-04-13T17:39:53.213Z,1.30
2023-04-13T17:44:55.042Z,2.15
2023-04-13T17:49:56.751Z,2.70
2023-04-13T17:54:58.666Z,1.55
2023-04-13T18:00:01.230Z,1.17
2023-04-13T18:05:04.756Z,1.35
2023-04-13T18:10:07.033Z,1.37
2023-04-13T18:15:09.928Z,2.25
2023-04-13T18:20:12.089Z,2.60
2023-04-13T18:25:14.004Z,2.25
2023-04-13T18:30:16.142Z,2.92
2023-04-13T18:35:18.847Z,1.85
2023-04-13T18:40:20.850Z,2.05
2023-04-13T18:45:22.567Z,1.40
2023-04-13T18:50:24.563Z,3.30
2023-04-13T18:55:28.454Z,1.83
2023-04-13T19:00:31.450Z,1.58
2023-04-13T19:05:35.539Z,2.13
2023-04-13T19:10:37.261Z,1.85
2023-04-13T19:15:39.222Z,2.03
2023-04-13T19:20:40.931Z,2.38
2023-04-13T19:25:42.652Z,1.33
2023-04-13T19:30:44.489Z,2.85
2023-04-13T19:35:46.483Z,1.15
2023-04-13T19:40:48.198Z,2.80
2023-04-13T19:45:49.909Z,0.98
2023-04-13T19:50:51.690Z,1.10
2023-04-13T19:55:53.418Z,2.03
2023-04-13T20:00:57.525Z,1.35
2023-04-13T20:05:59.315Z,1.45
2023-04-13T20:11:01.131Z,1.58
2023-04-13T20:16:02.989Z,1.00
2023-04-13T20:21:06.374Z,1.27
2023-04-13T20:26:08.156Z,1.42
2023-04-13T20:31:10.042Z,7.32
2023-04-13T20:36:12.107Z,1.60
2023-04-13T20:41:13.981Z,2.40
2023-04-13T20:46:16.583Z,1.35
2023-04-13T20:51:19.168Z,3.03
2023-04-13T20:56:24.420Z,2.85
2023-04-13T21:01:26.170Z,1.67
2023-04-13T21:06:29.976Z,2.25
2023-04-13T21:11:32.001Z,2.90
2023-04-13T21:16:33.797Z,2.50
2023-04-13T21:21:36.058Z,3.60
2023-04-13T21:26:38.014Z,4.05
2023-04-13T21:31:39.740Z,5.78
2023-04-13T21:41:49.020Z,3.92
2023-04-13T21:46:51.420Z,2.83
2023-04-13T21:51:53.178Z,2.72
2023-04-13T21:56:56.243Z,2.90
2023-04-13T22:01:58.066Z,1.75
2023-04-13T22:06:59.849Z,1.73
2023-04-13T22:12:01.641Z,1.70
2023-04-13T22:17:03.763Z,1.73
2023-04-13T22:22:05.648Z,1.83
2023-04-13T22:27:07.664Z,1.85
2023-04-13T22:32:09.729Z,2.30
2023-04-13T22:37:15.621Z,2.85
2023-04-13T22:42:18.797Z,1.90
2023-04-13T22:47:20.726Z,2.95
2023-04-13T22:52:22.456Z,2.55
2023-04-13T22:57:24.184Z,2.22
2023-04-13T23:02:26.111Z,2.20
2023-04-13T23:07:27.860Z,2.15
2023-04-13T23:12:29.561Z,2.10
2023-04-13T23:17:31.315Z,2.47
2023-04-13T23:22:33.660Z,2.15
2023-04-13T23:27:35.550Z,1.90
2023-04-13T23:32:37.308Z,2.97
2023-04-13T23:37:40.594Z,5.45
2023-04-13T23:42:42.281Z,4.22
2023-04-13T23:47:44.008Z,2.65
2023-04-13T23:52:45.759Z,3.90
2023-04-13T23:57:47.665Z,3.35
